TimeEDT,TemperatureF,Dew PointF,Humidity,Sea Level PressureIn,VisibilityMPH,Wind Direction,Wind SpeedMPH,Gust SpeedMPH,PrecipitationIn,Events,Conditions,WindDirDegrees,DateUTC
12:54 AM,28.9,27.0,92,30.11,10.0,Calm,Calm,-,N/A,,Clear,0,2014-03-31 04:54:00
1:54 AM,28.9,26.1,89,30.11,10.0,North,3.5,-,N/A,,Partly Cloudy,360,2014-03-31 05:54:00
2:54 AM,25.0,23.0,92,30.10,4.0,Calm,Calm,-,N/A,,Clear,0,2014-03-31 06:54:00
3:54 AM,23.0,21.9,96,30.12,9.0,NNW,3.5,-,N/A,,Scattered Clouds,340,2014-03-31 07:54:00
4:54 AM,23.0,19.9,88,30.14,10.0,NW,4.6,-,N/A,,Partly Cloudy,320,2014-03-31 08:54:00
5:54 AM,23.0,19.9,88,30.16,9.0,Calm,Calm,-,N/A,,Clear,0,2014-03-31 09:54:00
6:54 AM,23.0,21.0,92,30.18,6.0,Calm,Calm,-,N/A,,Partly Cloudy,0,2014-03-31 10:54:00
7:54 AM,25.0,25.0,100,30.20,8.0,SW,3.5,-,N/A,,Clear,230,2014-03-31 11:54:00
8:54 AM,30.0,26.1,85,30.21,10.0,SW,4.6,-,N/A,,Clear,230,2014-03-31 12:54:00
9:54 AM,37.0,28.0,70,30.22,10.0,NW,4.6,-,N/A,,Clear,310,2014-03-31 13:54:00
10:54 AM,39.0,27.0,62,30.22,10.0,NNW,10.4,-,N/A,,Clear,340,2014-03-31 14:54:00
11:54 AM,41.0,27.0,57,30.22,10.0,NNW,6.9,-,N/A,,Clear,340,2014-03-31 15:54:00
12:54 PM,42.1,26.1,53,30.22,10.0,North,8.1,-,N/A,,Clear,360,2014-03-31 16:54:00
1:54 PM,42.1,25.0,51,30.22,10.0,North,10.4,-,N/A,,Clear,10,2014-03-31 17:54:00
2:54 PM,43.0,25.0,49,30.22,10.0,North,6.9,-,N/A,,Clear,360,2014-03-31 18:54:00
3:54 PM,44.1,25.0,47,30.22,10.0,Variable,3.5,-,N/A,,Clear,0,2014-03-31 19:54:00
4:54 PM,46.0,26.1,46,30.22,10.0,Calm,Calm,-,N/A,,Partly Cloudy,0,2014-03-31 20:54:00
5:54 PM,46.0,26.1,46,30.22,10.0,Calm,Calm,-,N/A,,Scattered Clouds,0,2014-03-31 21:54:00
6:54 PM,46.9,25.0,42,30.22,10.0,Calm,Calm,-,N/A,,Scattered Clouds,0,2014-03-31 22:54:00
7:54 PM,43.0,26.1,51,30.22,10.0,Calm,Calm,-,N/A,,Partly Cloudy,0,2014-03-31 23:54:00
8:54 PM,39.0,26.1,60,30.22,10.0,Calm,Calm,-,N/A,,Clear,0,2014-04-01 00:54:00
9:54 PM,37.0,26.1,65,30.22,10.0,Calm,Calm,-,N/A,,Clear,0,2014-04-01 01:54:00
10:54 PM,33.1,25.0,72,30.22,10.0,ESE,3.5,-,N/A,,Clear,120,2014-04-01 02:54:00
11:54 PM,34.0,25.0,70,30.23,10.0,Calm,Calm,-,N/A,,Scattered Clouds,0,2014-04-01 03:54:00